createdAt,value
2022-12-31T00:00:55.624Z,12.90
2022-12-31T00:02:59.220Z,12.92
2022-12-31T00:05:02.619Z,12.91
2022-12-31T00:07:05.952Z,12.94
2022-12-31T00:09:09.657Z,12.95
2022-12-31T00:11:13.632Z,12.90
2022-12-31T00:13:17.220Z,12.95
2022-12-31T00:15:20.650Z,12.95
2022-12-31T00:17:25.402Z,13.00
2022-12-31T00:19:28.759Z,12.98
2022-12-31T00:21:33.788Z,12.99
2022-12-31T00:23:37.758Z,13.02
2022-12-31T00:25:41.208Z,12.99
2022-12-31T00:27:44.654Z,13.03
2022-12-31T00:29:48.021Z,13.03
2022-12-31T00:31:51.397Z,13.09
2022-12-31T00:33:58.035Z,12.97
2022-12-31T00:36:09.680Z,13.07
2022-12-31T00:38:13.016Z,13.09
2022-12-31T00:40:16.854Z,13.13
2022-12-31T00:42:20.199Z,13.18
2022-12-31T00:44:23.567Z,13.21
2022-12-31T00:46:27.287Z,13.23
2022-12-31T00:48:31.041Z,13.22
2022-12-31T00:50:35.708Z,13.21
2022-12-31T00:52:39.046Z,13.15
2022-12-31T00:54:42.402Z,13.13
2022-12-31T00:56:45.715Z,13.13
2022-12-31T00:58:49.510Z,13.17
2022-12-31T01:00:52.893Z,13.13
2022-12-31T01:02:56.364Z,13.12
2022-12-31T01:04:59.703Z,13.13
2022-12-31T01:07:04.635Z,13.11
2022-12-31T01:09:08.772Z,13.14
2022-12-31T01:11:22.295Z,13.05
2022-12-31T01:13:26.045Z,13.23
2022-12-31T01:15:29.578Z,13.26
2022-12-31T01:17:32.918Z,13.33
2022-12-31T01:19:36.365Z,13.37
2022-12-31T01:21:41.236Z,13.44
2022-12-31T01:23:46.149Z,13.46
2022-12-31T01:25:49.833Z,13.52
2022-12-31T01:27:53.150Z,13.56
2022-12-31T01:29:56.465Z,13.66
2022-12-31T01:31:59.836Z,13.67
2022-12-31T01:34:03.583Z,13.71
2022-12-31T01:36:09.861Z,13.75
2022-12-31T01:38:13.173Z,13.81
2022-12-31T01:40:18.454Z,13.87
2022-12-31T01:42:21.872Z,13.89
2022-12-31T01:44:50.067Z,14.00
2022-12-31T01:46:56.193Z,14.06
2022-12-31T01:49:02.839Z,14.11
2022-12-31T01:51:08.419Z,14.13
2022-12-31T01:53:12.845Z,14.11
2022-12-31T01:55:21.342Z,14.14
2022-12-31T01:57:27.462Z,14.17
2022-12-31T01:59:31.979Z,14.25
2022-12-31T02:01:38.974Z,14.26
2022-12-31T02:03:42.638Z,14.36
2022-12-31T02:05:50.870Z,14.41
2022-12-31T02:07:55.806Z,14.43
2022-12-31T02:10:00.625Z,14.46
2022-12-31T02:12:05.983Z,14.50
2022-12-31T02:14:14.365Z,14.50
2022-12-31T02:16:22.798Z,14.48
2022-12-31T02:18:35.145Z,14.58
2022-12-31T02:21:05.707Z,14.57
2022-12-31T02:23:47.285Z,14.55
2022-12-31T02:26:05.930Z,14.61
2022-12-31T02:28:22.667Z,14.60
2022-12-31T02:30:29.865Z,14.57
2022-12-31T02:32:39.957Z,14.63
2022-12-31T02:34:48.739Z,14.66
2022-12-31T02:36:56.074Z,14.72
2022-12-31T02:39:00.252Z,14.73
2022-12-31T02:41:03.588Z,14.78
2022-12-31T02:43:07.265Z,14.82
2022-12-31T02:45:13.134Z,14.79
2022-12-31T02:47:31.798Z,14.80
2022-12-31T02:49:45.063Z,14.75
2022-12-31T02:52:00.166Z,14.73
2022-12-31T02:54:19.643Z,14.82
2022-12-31T02:56:28.139Z,14.88
2022-12-31T02:58:56.189Z,14.92
2022-12-31T03:01:18.445Z,14.94
2022-12-31T03:03:24.006Z,15.04
2022-12-31T03:05:30.441Z,15.11
2022-12-31T03:07:34.300Z,15.19
2022-12-31T03:09:38.445Z,15.56
2022-12-31T03:11:59.948Z,15.61
2022-12-31T03:14:03.275Z,15.57
2022-12-31T03:16:16.580Z,15.59
2022-12-31T03:18:41.889Z,15.61
2022-12-31T03:21:12.260Z,15.64
2022-12-31T03:23:19.629Z,15.89
2022-12-31T03:25:34.493Z,15.86
2022-12-31T03:27:36.856Z,15.91
2022-12-31T03:29:40.163Z,15.95
2022-12-31T03:31:43.525Z,15.87
2022-12-31T03:33:46.896Z,15.82
2022-12-31T03:35:52.535Z,15.74
2022-12-31T03:37:56.408Z,15.73
2022-12-31T03:39:59.921Z,15.70
2022-12-31T03:42:03.416Z,15.68
2022-12-31T03:44:06.866Z,15.65
2022-12-31T03:46:10.229Z,15.71
2022-12-31T03:48:14.281Z,15.70
2022-12-31T03:50:19.312Z,15.71
2022-12-31T03:52:24.373Z,15.73
2022-12-31T03:54:27.757Z,15.75
2022-12-31T03:56:31.927Z,15.76
2022-12-31T03:58:35.531Z,15.72
2022-12-31T04:00:39.049Z,15.69
2022-12-31T04:02:43.328Z,15.65
2022-12-31T04:04:46.752Z,15.59
2022-12-31T04:06:50.145Z,15.52
2022-12-31T04:08:54.822Z,15.53
2022-12-31T04:10:58.293Z,15.54
2022-12-31T04:13:04.502Z,15.49
2022-12-31T04:15:09.556Z,15.47
2022-12-31T04:17:12.892Z,15.46
2022-12-31T04:19:16.225Z,15.48
2022-12-31T04:21:21.037Z,15.46
2022-12-31T04:23:24.364Z,15.49
2022-12-31T04:25:29.123Z,15.49
2022-12-31T04:27:32.468Z,15.54
2022-12-31T04:29:35.854Z,15.57
2022-12-31T04:31:39.225Z,15.60
2022-12-31T04:33:42.596Z,15.60
2022-12-31T04:35:46.232Z,15.61
2022-12-31T04:37:49.601Z,15.65
2022-12-31T04:39:52.877Z,15.67
2022-12-31T04:41:57.623Z,15.72
2022-12-31T04:44:01.124Z,15.78
2022-12-31T04:46:04.675Z,15.69
2022-12-31T04:48:09.035Z,15.84
2022-12-31T04:50:12.361Z,15.81
2022-12-31T04:52:18.705Z,15.86
2022-12-31T04:54:22.326Z,15.87
2022-12-31T04:56:25.905Z,15.84
2022-12-31T04:58:31.117Z,16.08
2022-12-31T05:00:34.509Z,16.12
2022-12-31T05:02:38.277Z,16.15
2022-12-31T05:04:41.753Z,16.28
2022-12-31T05:06:45.041Z,16.34
2022-12-31T05:08:49.355Z,16.31
2022-12-31T05:10:52.721Z,16.34
2022-12-31T05:12:56.198Z,16.34
2022-12-31T05:15:00.894Z,16.53
2022-12-31T05:17:04.352Z,16.51
2022-12-31T05:19:09.538Z,16.54
2022-12-31T05:21:19.308Z,16.56
2022-12-31T05:23:22.951Z,16.55
2022-12-31T05:25:26.354Z,16.50
2022-12-31T05:27:31.534Z,16.48
2022-12-31T05:29:35.279Z,16.53
2022-12-31T05:31:39.973Z,16.53
2022-12-31T05:33:43.285Z,16.52
2022-12-31T05:35:46.994Z,16.58
2022-12-31T05:37:50.437Z,16.65
2022-12-31T05:39:53.750Z,16.62
2022-12-31T05:41:57.325Z,16.56
2022-12-31T05:44:00.629Z,16.69
2022-12-31T05:46:05.367Z,16.68
2022-12-31T05:48:10.245Z,16.68
2022-12-31T05:50:16.330Z,16.77
2022-12-31T05:52:19.863Z,16.81
2022-12-31T05:54:23.175Z,16.81
2022-12-31T05:56:26.587Z,16.86
2022-12-31T05:58:29.867Z,16.74
2022-12-31T06:00:34.433Z,16.70
2022-12-31T06:02:37.908Z,16.74
2022-12-31T06:04:42.675Z,16.72
2022-12-31T06:06:46.035Z,16.77
2022-12-31T06:08:50.643Z,16.75
2022-12-31T06:10:53.938Z,16.67
2022-12-31T06:12:57.261Z,16.66
2022-12-31T06:15:00.693Z,16.63
2022-12-31T06:17:06.270Z,16.67
2022-12-31T06:19:10.638Z,16.68
2022-12-31T06:21:15.837Z,16.70
2022-12-31T06:23:19.224Z,16.60
2022-12-31T06:25:22.527Z,16.76
2022-12-31T06:27:25.926Z,16.75
2022-12-31T06:29:29.724Z,16.65
2022-12-31T06:31:33.048Z,16.68
2022-12-31T06:33:36.820Z,16.64
2022-12-31T06:35:40.168Z,16.66
2022-12-31T06:37:44.847Z,16.70
2022-12-31T06:39:48.170Z,16.42
2022-12-31T06:41:51.545Z,16.67
2022-12-31T06:43:54.937Z,16.78
2022-12-31T06:46:01.455Z,16.84
2022-12-31T06:48:05.782Z,16.71
2022-12-31T06:50:10.101Z,16.83
2022-12-31T06:52:13.656Z,16.87
2022-12-31T06:54:18.328Z,16.84
2022-12-31T06:56:31.211Z,16.80
2022-12-31T06:58:37.142Z,16.91
2022-12-31T07:00:44.284Z,16.91
2022-12-31T07:03:11.414Z,16.87
2022-12-31T07:05:37.283Z,16.91
2022-12-31T07:07:50.771Z,16.90
2022-12-31T07:10:02.300Z,16.93
2022-12-31T07:12:17.216Z,16.89
2022-12-31T07:14:32.757Z,16.92
2022-12-31T07:16:45.521Z,16.96
2022-12-31T07:18:55.320Z,17.01
2022-12-31T07:20:59.168Z,16.98
2022-12-31T07:23:03.056Z,17.00
2022-12-31T07:25:09.334Z,16.97
2022-12-31T07:27:28.839Z,17.02
2022-12-31T07:29:43.750Z,16.93
2022-12-31T07:31:58.596Z,16.96
2022-12-31T07:34:08.419Z,17.00
2022-12-31T07:36:24.847Z,16.96
2022-12-31T07:38:36.491Z,16.91
2022-12-31T07:40:53.509Z,17.01
2022-12-31T07:43:08.342Z,16.99
2022-12-31T07:45:19.347Z,17.03
2022-12-31T07:47:24.625Z,17.06
2022-12-31T07:49:30.389Z,17.03
2022-12-31T07:51:34.266Z,17.07
2022-12-31T07:53:37.739Z,17.11
2022-12-31T07:55:42.492Z,17.17
2022-12-31T07:57:56.504Z,17.17
2022-12-31T08:00:07.183Z,17.12
2022-12-31T08:02:25.931Z,17.10
2022-12-31T08:04:34.245Z,17.10
2022-12-31T08:06:47.491Z,17.10
2022-12-31T08:08:58.572Z,17.07
2022-12-31T08:11:13.691Z,17.10
2022-12-31T08:13:18.346Z,17.09
2022-12-31T08:15:28.500Z,17.08
2022-12-31T08:17:34.025Z,17.01
2022-12-31T08:19:37.847Z,16.99
2022-12-31T08:21:49.784Z,16.97
2022-12-31T08:24:04.563Z,17.00
2022-12-31T08:26:22.486Z,17.02
2022-12-31T08:28:42.177Z,17.04
2022-12-31T08:30:55.734Z,17.03
2022-12-31T08:33:09.606Z,17.03
2022-12-31T08:35:25.625Z,16.98
2022-12-31T08:37:37.669Z,17.05
2022-12-31T08:39:57.824Z,17.06
2022-12-31T08:42:05.972Z,17.03
2022-12-31T08:44:19.138Z,17.08
2022-12-31T08:46:29.080Z,17.08
2022-12-31T08:48:39.629Z,17.08
2022-12-31T08:50:43.476Z,17.06
2022-12-31T08:52:48.762Z,17.11
2022-12-31T08:54:53.234Z,17.14
2022-12-31T08:57:05.363Z,17.14
2022-12-31T08:59:21.710Z,17.21
2022-12-31T09:01:33.878Z,17.21
2022-12-31T09:03:52.108Z,17.27
2022-12-31T09:06:03.661Z,17.32
2022-12-31T09:08:17.390Z,17.33
2022-12-31T09:10:25.740Z,17.32
2022-12-31T09:12:33.917Z,17.37
2022-12-31T09:14:48.207Z,17.36
2022-12-31T09:17:01.656Z,17.35
2022-12-31T09:19:05.077Z,17.37
2022-12-31T09:21:10.764Z,17.35
2022-12-31T09:23:14.521Z,17.37
2022-12-31T09:25:20.320Z,17.32
2022-12-31T09:27:28.656Z,17.34
2022-12-31T09:29:44.766Z,17.43
2022-12-31T09:31:57.275Z,17.40
2022-12-31T09:34:04.624Z,17.43
2022-12-31T09:36:12.460Z,17.31
2022-12-31T09:38:20.685Z,17.41
2022-12-31T09:40:49.005Z,17.42
2022-12-31T09:43:10.268Z,17.48
2022-12-31T09:45:41.300Z,17.50
2022-12-31T09:48:13.361Z,17.44
2022-12-31T09:50:40.896Z,17.58
2022-12-31T09:53:02.661Z,17.60
2022-12-31T09:55:38.338Z,17.62
2022-12-31T09:57:55.766Z,17.61
2022-12-31T10:00:04.631Z,17.58
2022-12-31T10:02:28.258Z,17.60
2022-12-31T10:05:01.869Z,17.64
2022-12-31T10:07:31.162Z,17.65
2022-12-31T10:10:07.487Z,17.66
2022-12-31T10:12:36.522Z,17.64
2022-12-31T10:14:59.743Z,17.63
2022-12-31T10:17:15.406Z,17.62
2022-12-31T10:20:09.202Z,17.65
2022-12-31T10:22:32.085Z,17.64
2022-12-31T10:24:46.795Z,17.62
2022-12-31T10:27:14.118Z,17.64
2022-12-31T10:29:26.427Z,17.55
2022-12-31T10:31:40.566Z,17.65
2022-12-31T10:33:52.977Z,17.65
2022-12-31T10:36:08.733Z,17.66
2022-12-31T10:38:28.114Z,17.68
2022-12-31T10:40:52.325Z,17.69
2022-12-31T10:43:27.256Z,17.67
2022-12-31T10:46:00.912Z,17.67
2022-12-31T10:48:39.503Z,17.57
2022-12-31T10:50:57.041Z,17.63
2022-12-31T10:53:29.261Z,17.67
2022-12-31T10:56:01.807Z,17.65
2022-12-31T10:58:33.644Z,17.64
2022-12-31T11:00:45.273Z,17.60
2022-12-31T11:03:28.974Z,17.65
2022-12-31T11:06:19.617Z,17.66
2022-12-31T11:08:42.873Z,17.68
2022-12-31T11:11:20.596Z,17.66
2022-12-31T11:14:01.845Z,17.68
2022-12-31T11:16:21.288Z,17.73
2022-12-31T11:18:34.351Z,17.77
2022-12-31T11:21:06.527Z,17.80
2022-12-31T11:23:25.424Z,17.77
2022-12-31T11:25:41.558Z,17.78
2022-12-31T11:27:59.370Z,17.76
2022-12-31T11:30:12.394Z,17.87
2022-12-31T11:32:31.781Z,17.88
2022-12-31T11:35:04.354Z,17.86
2022-12-31T11:37:28.612Z,17.84
2022-12-31T11:39:43.707Z,17.85
2022-12-31T11:41:53.152Z,17.86
2022-12-31T11:44:04.536Z,17.84
2022-12-31T11:46:27.736Z,17.74
2022-12-31T11:48:37.817Z,17.86
2022-12-31T11:50:53.705Z,17.85
2022-12-31T11:53:24.274Z,17.81
2022-12-31T11:55:36.033Z,17.84
2022-12-31T11:57:41.489Z,17.73
2022-12-31T11:59:44.966Z,17.77
2022-12-31T12:01:56.933Z,17.81
2022-12-31T12:04:00.471Z,17.83
2022-12-31T12:06:05.853Z,17.80
2022-12-31T12:08:09.217Z,17.79
2022-12-31T12:10:24.014Z,17.77
2022-12-31T12:12:27.443Z,17.76
2022-12-31T12:14:35.270Z,17.78
2022-12-31T12:16:38.777Z,17.75
2022-12-31T12:18:46.588Z,17.76
2022-12-31T12:20:50.068Z,17.77
2022-12-31T12:22:57.231Z,17.77
2022-12-31T12:25:05.978Z,17.80
2022-12-31T12:27:22.473Z,17.80
2022-12-31T12:29:30.150Z,17.84
2022-12-31T12:31:34.177Z,17.96
2022-12-31T12:33:44.615Z,17.85
2022-12-31T12:35:48.615Z,17.85
2022-12-31T12:38:01.738Z,17.83
2022-12-31T12:40:09.344Z,17.81
2022-12-31T12:42:15.547Z,17.73
2022-12-31T12:44:18.879Z,17.70
2022-12-31T12:46:28.577Z,17.72
2022-12-31T12:48:38.319Z,17.68
2022-12-31T12:50:46.517Z,17.65
2022-12-31T12:53:08.740Z,17.66
2022-12-31T12:55:20.700Z,17.64
2022-12-31T12:57:30.129Z,17.61
2022-12-31T12:59:58.406Z,17.58
2022-12-31T13:02:19.335Z,17.61
2022-12-31T13:04:48.418Z,17.68
2022-12-31T13:07:08.744Z,17.75
2022-12-31T13:09:27.569Z,17.75
2022-12-31T13:11:44.073Z,17.81
2022-12-31T13:13:55.784Z,17.84
2022-12-31T13:16:05.684Z,17.82
2022-12-31T13:18:17.036Z,17.77
2022-12-31T13:20:30.754Z,17.72
2022-12-31T13:22:39.251Z,17.57
2022-12-31T13:24:55.134Z,17.44
2022-12-31T13:27:05.527Z,17.32
2022-12-31T13:29:16.409Z,17.09
2022-12-31T13:31:27.220Z,17.03
2022-12-31T13:33:35.308Z,17.02
2022-12-31T13:35:46.113Z,16.95
2022-12-31T13:37:52.227Z,16.84
2022-12-31T13:40:02.311Z,16.75
2022-12-31T13:42:14.043Z,16.55
2022-12-31T13:44:25.531Z,16.44
2022-12-31T13:46:42.585Z,16.33
2022-12-31T13:48:51.803Z,16.37
2022-12-31T13:51:02.543Z,16.28
2022-12-31T13:53:15.088Z,16.24
2022-12-31T13:55:25.090Z,16.10
2022-12-31T13:57:40.998Z,16.16
2022-12-31T13:59:49.508Z,16.08
2022-12-31T14:01:58.083Z,16.12
2022-12-31T14:04:08.700Z,16.04
2022-12-31T14:06:22.211Z,16.00
2022-12-31T14:08:25.773Z,15.94
2022-12-31T14:10:42.603Z,15.92
2022-12-31T14:12:54.755Z,15.81
2022-12-31T14:15:08.739Z,15.79
2022-12-31T14:17:20.837Z,15.82
2022-12-31T14:19:45.156Z,15.84
2022-12-31T14:21:54.693Z,15.82
2022-12-31T14:24:07.725Z,15.91
2022-12-31T14:26:21.479Z,15.90
2022-12-31T14:28:29.107Z,15.94
2022-12-31T14:30:38.096Z,16.00
2022-12-31T14:33:11.012Z,16.07
2022-12-31T14:35:37.213Z,16.06
2022-12-31T14:37:49.946Z,16.07
2022-12-31T14:40:02.508Z,16.13
2022-12-31T14:42:18.475Z,16.09
2022-12-31T14:44:35.023Z,16.11
2022-12-31T14:46:46.037Z,16.08
2022-12-31T14:48:58.934Z,16.07
2022-12-31T14:51:05.130Z,16.08
2022-12-31T14:53:18.478Z,16.04
2022-12-31T14:55:26.127Z,16.07
2022-12-31T14:58:01.412Z,16.03
2022-12-31T15:00:26.437Z,16.05
2022-12-31T15:02:32.611Z,16.09
2022-12-31T15:04:45.720Z,16.11
2022-12-31T15:06:59.359Z,16.09
2022-12-31T15:09:14.509Z,16.03
2022-12-31T15:11:28.196Z,16.14
2022-12-31T15:13:47.456Z,16.20
2022-12-31T15:16:20.210Z,16.27
2022-12-31T15:18:36.143Z,16.19
2022-12-31T15:20:50.543Z,16.23
2022-12-31T15:22:55.125Z,16.19
2022-12-31T15:25:00.323Z,16.21
2022-12-31T15:27:06.503Z,16.26
2022-12-31T15:29:32.110Z,16.28
2022-12-31T15:31:37.413Z,16.31
2022-12-31T15:33:42.746Z,16.30
2022-12-31T15:35:50.353Z,16.27
2022-12-31T15:38:01.187Z,16.34
2022-12-31T15:40:20.201Z,16.38
2022-12-31T15:42:38.319Z,16.40
2022-12-31T15:44:49.999Z,16.40
2022-12-31T15:46:58.808Z,16.39
2022-12-31T15:49:10.287Z,16.28
2022-12-31T15:51:21.017Z,16.33
2022-12-31T15:53:29.750Z,16.26
2022-12-31T15:55:38.608Z,16.33
2022-12-31T15:57:43.264Z,16.29
2022-12-31T15:59:48.552Z,16.32
2022-12-31T16:01:51.987Z,16.24
2022-12-31T16:03:58.915Z,16.24
2022-12-31T16:06:04.665Z,16.24
2022-12-31T16:08:08.099Z,16.26
2022-12-31T16:10:19.717Z,16.26
2022-12-31T16:12:32.958Z,16.31
2022-12-31T16:14:40.381Z,16.32
2022-12-31T16:16:54.192Z,16.31
2022-12-31T16:18:58.568Z,16.26
2022-12-31T16:21:01.965Z,16.20
2022-12-31T16:23:21.599Z,16.24
2022-12-31T16:25:33.673Z,16.20
2022-12-31T16:27:37.311Z,16.12
2022-12-31T16:29:47.263Z,16.07
2022-12-31T16:31:55.938Z,16.05
2022-12-31T16:34:07.646Z,16.06
2022-12-31T16:36:21.390Z,15.99
2022-12-31T16:38:33.190Z,16.03
2022-12-31T16:40:36.693Z,15.96
2022-12-31T16:42:44.358Z,15.93
2022-12-31T16:44:48.708Z,15.94
2022-12-31T16:46:52.096Z,15.91
2022-12-31T16:49:00.203Z,16.00
2022-12-31T16:51:04.625Z,15.93
2022-12-31T16:53:09.125Z,15.88
2022-12-31T16:55:18.369Z,15.84
2022-12-31T16:57:24.949Z,15.85
2022-12-31T16:59:35.348Z,15.86
2022-12-31T17:01:39.737Z,15.82
2022-12-31T17:03:46.307Z,15.82
2022-12-31T17:06:01.612Z,15.79
2022-12-31T17:08:24.005Z,15.83
2022-12-31T17:10:34.840Z,15.78
2022-12-31T17:13:25.007Z,15.77
2022-12-31T17:15:17.435Z,15.72
2022-12-31T17:17:24.698Z,15.81
2022-12-31T17:19:41.326Z,15.78
2022-12-31T17:21:48.567Z,15.71
2022-12-31T17:23:56.521Z,15.72
2022-12-31T17:26:02.319Z,15.70
2022-12-31T17:28:08.835Z,15.71
2022-12-31T17:30:22.099Z,15.70
2022-12-31T17:32:31.379Z,15.65
2022-12-31T17:34:37.753Z,15.66
2022-12-31T17:36:42.425Z,15.71
2022-12-31T17:38:47.285Z,15.71
2022-12-31T17:40:53.315Z,15.74
2022-12-31T17:42:57.404Z,15.68
2022-12-31T17:45:03.124Z,15.66
2022-12-31T17:47:09.049Z,15.64
2022-12-31T17:49:14.033Z,15.64
2022-12-31T17:51:17.442Z,15.60
2022-12-31T17:53:28.533Z,15.59
2022-12-31T17:55:33.976Z,15.53
2022-12-31T17:57:37.865Z,15.52
2022-12-31T17:59:41.247Z,15.56
2022-12-31T18:01:45.163Z,15.52
2022-12-31T18:03:48.874Z,15.45
2022-12-31T18:05:52.299Z,15.51
2022-12-31T18:07:55.677Z,15.50
2022-12-31T18:09:58.969Z,15.54
2022-12-31T18:12:05.081Z,15.52
2022-12-31T18:14:08.645Z,15.52
2022-12-31T18:16:12.118Z,15.53
2022-12-31T18:18:24.791Z,15.51
2022-12-31T18:20:29.003Z,15.52
2022-12-31T18:22:32.559Z,15.59
2022-12-31T18:24:36.223Z,15.57
2022-12-31T18:26:42.236Z,15.54
2022-12-31T18:28:47.599Z,15.56
2022-12-31T18:30:51.265Z,15.59
2022-12-31T18:32:54.962Z,15.57
2022-12-31T18:34:58.287Z,15.54
2022-12-31T18:37:01.716Z,15.51
2022-12-31T18:39:05.315Z,15.53
2022-12-31T18:41:14.148Z,15.54
2022-12-31T18:43:19.097Z,15.54
2022-12-31T18:45:24.780Z,15.57
2022-12-31T18:47:31.415Z,15.56
2022-12-31T18:49:40.852Z,15.59
2022-12-31T18:51:44.171Z,15.56
2022-12-31T18:53:47.871Z,15.53
2022-12-31T18:55:52.876Z,15.57
2022-12-31T18:57:56.251Z,15.58
2022-12-31T18:59:59.571Z,15.64
2022-12-31T19:02:04.654Z,15.62
2022-12-31T19:04:14.035Z,15.57
2022-12-31T19:06:17.372Z,15.58
2022-12-31T19:08:22.794Z,15.59
2022-12-31T19:10:27.202Z,15.57
2022-12-31T19:12:30.544Z,15.59
2022-12-31T19:14:33.894Z,15.66
2022-12-31T19:16:37.198Z,15.69
2022-12-31T19:18:42.391Z,15.70
2022-12-31T19:20:46.191Z,15.53
2022-12-31T19:22:49.595Z,15.64
2022-12-31T19:24:52.877Z,15.64
2022-12-31T19:26:56.218Z,15.65
2022-12-31T19:28:59.538Z,15.67
2022-12-31T19:31:02.845Z,15.67
2022-12-31T19:33:06.263Z,15.68
2022-12-31T19:35:13.214Z,15.66
2022-12-31T19:37:16.655Z,15.64
2022-12-31T19:39:22.374Z,15.66
2022-12-31T19:41:25.759Z,15.61
2022-12-31T19:43:29.185Z,15.64
2022-12-31T19:45:32.970Z,15.65
2022-12-31T19:47:42.445Z,15.66
2022-12-31T19:49:45.950Z,15.57
2022-12-31T19:51:50.905Z,15.67
2022-12-31T19:53:54.207Z,15.64
2022-12-31T19:55:57.509Z,15.65
2022-12-31T19:58:00.805Z,15.67
2022-12-31T20:00:05.016Z,15.69
2022-12-31T20:02:17.179Z,15.65
2022-12-31T20:04:21.638Z,15.72
2022-12-31T20:06:24.959Z,15.71
2022-12-31T20:08:29.702Z,15.69
2022-12-31T20:10:33.046Z,15.74
2022-12-31T20:12:42.185Z,15.75
2022-12-31T20:14:47.517Z,15.65
2022-12-31T20:16:52.467Z,15.71
2022-12-31T20:18:56.085Z,15.76
2022-12-31T20:20:59.481Z,15.73
2022-12-31T20:23:02.824Z,15.77
2022-12-31T20:25:08.287Z,15.78
2022-12-31T20:27:18.250Z,15.78
2022-12-31T20:29:21.978Z,15.76
2022-12-31T20:31:26.494Z,15.76
2022-12-31T20:33:31.756Z,15.80
2022-12-31T20:35:35.059Z,15.80
2022-12-31T20:37:38.423Z,15.76
2022-12-31T20:39:42.630Z,15.71
2022-12-31T20:41:47.449Z,15.69
2022-12-31T20:43:51.871Z,15.75
2022-12-31T20:45:55.384Z,15.73
2022-12-31T20:47:58.916Z,15.75
2022-12-31T20:50:11.717Z,15.74
2022-12-31T20:52:15.698Z,15.60
2022-12-31T20:54:18.990Z,15.72
2022-12-31T20:56:23.269Z,15.72
2022-12-31T20:58:28.003Z,15.75
2022-12-31T21:00:31.425Z,15.71
2022-12-31T21:02:42.253Z,15.72
2022-12-31T21:04:46.925Z,15.71
2022-12-31T21:06:52.200Z,15.73
2022-12-31T21:08:56.127Z,15.77
2022-12-31T21:10:59.577Z,15.79
2022-12-31T21:13:01.979Z,15.80
2022-12-31T21:15:07.996Z,15.74
2022-12-31T21:17:11.383Z,15.74
2022-12-31T21:19:14.749Z,15.74
2022-12-31T21:21:18.429Z,15.81
2022-12-31T21:23:21.713Z,15.81
2022-12-31T21:25:25.024Z,15.77
2022-12-31T21:27:29.025Z,15.78
2022-12-31T21:29:34.702Z,15.78
2022-12-31T21:31:42.817Z,15.77
2022-12-31T21:33:46.448Z,15.73
2022-12-31T21:35:53.889Z,15.74
2022-12-31T21:38:01.251Z,15.61
2022-12-31T21:40:06.091Z,15.69
2022-12-31T21:42:09.570Z,15.71
2022-12-31T21:44:12.987Z,15.71
2022-12-31T21:46:16.575Z,15.62
2022-12-31T21:48:22.088Z,15.55
2022-12-31T21:50:25.470Z,15.40
2022-12-31T21:52:30.520Z,15.45
2022-12-31T21:54:50.636Z,15.38
2022-12-31T21:56:53.929Z,15.30
2022-12-31T21:59:17.137Z,15.26
2022-12-31T22:01:39.989Z,15.22
2022-12-31T22:03:44.864Z,15.20
2022-12-31T22:05:50.544Z,15.18
2022-12-31T22:07:53.895Z,15.13
2022-12-31T22:09:57.452Z,15.11
2022-12-31T22:12:00.774Z,15.15
2022-12-31T22:14:04.291Z,15.10
2022-12-31T22:16:08.709Z,15.12
2022-12-31T22:18:12.700Z,15.11
2022-12-31T22:20:27.035Z,15.12
2022-12-31T22:22:31.074Z,15.20
2022-12-31T22:24:34.534Z,15.19
2022-12-31T22:26:43.054Z,15.22
2022-12-31T22:28:48.580Z,15.23
2022-12-31T22:30:52.190Z,15.26
2022-12-31T22:32:55.683Z,15.33
2022-12-31T22:34:59.004Z,15.31
2022-12-31T22:37:20.329Z,15.28
2022-12-31T22:39:43.483Z,15.29
2022-12-31T22:41:48.032Z,15.36
2022-12-31T22:43:57.221Z,15.38
2022-12-31T22:46:11.741Z,15.40
2022-12-31T22:48:15.214Z,15.44
2022-12-31T22:50:19.056Z,15.48
2022-12-31T22:52:23.979Z,15.50
2022-12-31T22:54:27.274Z,15.54
2022-12-31T22:56:30.565Z,15.58
2022-12-31T22:58:34.066Z,15.60
2022-12-31T23:00:40.397Z,15.64
2022-12-31T23:02:43.820Z,15.62
2022-12-31T23:04:47.239Z,15.66
2022-12-31T23:06:50.519Z,15.67
2022-12-31T23:09:12.818Z,15.68
2022-12-31T23:11:16.130Z,15.71
2022-12-31T23:13:36.921Z,15.75
2022-12-31T23:15:57.929Z,15.68
2022-12-31T23:18:19.100Z,15.74
2022-12-31T23:20:42.900Z,15.74
2022-12-31T23:23:03.571Z,15.77
2022-12-31T23:25:09.018Z,15.77
2022-12-31T23:27:13.197Z,15.75
2022-12-31T23:29:16.570Z,15.69
2022-12-31T23:31:20.000Z,15.75
2022-12-31T23:33:25.725Z,15.76
2022-12-31T23:35:29.684Z,15.75
2022-12-31T23:37:34.334Z,15.81
2022-12-31T23:39:37.833Z,15.87
2022-12-31T23:41:42.688Z,15.88
2022-12-31T23:43:46.548Z,15.87
2022-12-31T23:45:50.919Z,15.87
2022-12-31T23:47:54.449Z,15.86
2022-12-31T23:49:57.819Z,15.85
2022-12-31T23:52:01.302Z,15.90
2022-12-31T23:54:04.695Z,15.98
2022-12-31T23:56:14.914Z,15.94
2022-12-31T23:58:23.183Z,16.00
